This is the latest recevied weather packets stored in our database for station/object DO1SC. If no packets are shown the sender has not sent any weather packets the latest 1 day(s).
| Time | Temp. | Humidity | Pressure | Rain* | Wind** | Luminosity | Snow |
|---|---|---|---|---|---|---|---|
| 1778004330 | 13.89° C | 84% | 1008.1 hPa | - | 2.24 m/s, 116° | 0 W/m² | - |
| 1778003721 | 14.44° C | 88% | 1006.8 hPa | - | 1.34 m/s, 297° | 2 W/m² | - |
| 1778003133 | 14.44° C | 86% | 1006.8 hPa | - | 1.34 m/s, 307° | 5 W/m² | - |
| 1778002525 | 14.44° C | 85% | 1006.8 hPa | - | 1.34 m/s, 303° | 5 W/m² | - |
| 1778001936 | 15° C | 85% | 1006.8 hPa | - | 1.34 m/s, 294° | 4 W/m² | - |
| 1778001325 | 15° C | 84% | 1006.8 hPa | - | 2.68 m/s, 309° | 5 W/m² | - |
| 1778000736 | 15° C | 83% | 1006.9 hPa | - | 1.79 m/s, 314° | 34 W/m² | - |
| 1778000127 | 15° C | 83% | 1007 hPa | - | 1.79 m/s, 304° | 58 W/m² | - |
| 1777999519 | 15.56° C | 82% | 1007.1 hPa | - | 1.79 m/s, 300° | 64 W/m² | - |
| 1777998933 | 15.56° C | 83% | 1007.1 hPa | - | 1.34 m/s, 311° | 60 W/m² | - |
| 1777998325 | 15.56° C | 83% | 1007.4 hPa | - | 1.34 m/s, 305° | 47 W/m² | - |
| 1777997732 | 15.56° C | 83% | 1007.5 hPa | - | 0.89 m/s, 295° | 67 W/m² | - |
| 1777997122 | 15° C | 83% | 1007.4 hPa | - | 1.34 m/s, 295° | 70 W/m² | - |
| 1777996539 | 15° C | 83% | 1007.5 hPa | - | 1.34 m/s, 323° | 47 W/m² | - |
| 1777995928 | 15.56° C | 82% | 1007.6 hPa | - | 1.79 m/s, 309° | 50 W/m² | - |
| 1777995316 | 15.56° C | 80% | 1007.7 hPa | - | 1.79 m/s, 300° | 41 W/m² | - |
| 1777994731 | 16.11° C | 76% | 1007.8 hPa | - | 1.79 m/s, 300° | 32 W/m² | - |
| 1777994120 | 16.67° C | 74% | 1007.7 hPa | - | 1.34 m/s, 301° | 33 W/m² | - |
| 1777993531 | 16.67° C | 73% | 1008 hPa | - | 2.68 m/s, 319° | 54 W/m² | - |
| 1777992923 | 16.67° C | 71% | 1008 hPa | - | 2.24 m/s, 306° | 76 W/m² | - |
| 1777992334 | 17.22° C | 70% | 1007.9 hPa | - | 2.68 m/s, 329° | 89 W/m² | - |
| 1777991725 | 17.22° C | 71% | 1007.9 hPa | - | 1.79 m/s, 304° | 199 W/m² | - |
| 1777991117 | 17.22° C | 68% | 1008 hPa | - | 2.24 m/s, 306° | 188 W/m² | - |
| 1777990529 | 17.22° C | 67% | 1008.1 hPa | - | 2.68 m/s, 315° | 194 W/m² | - |
| 1777989919 | 17.78° C | 67% | 1008.3 hPa | - | 1.79 m/s, 300° | 166 W/m² | - |
* Rain since midnight (hover to see other rain measurements)
** Current wind speed in m/s (hover to see current wind gust speed)